sensor_id;sensor_type;location;lat;lon;timestamp;temperature;humidity
50989;DHT22;37008;52.210;21.112;2024-01-15T00:01:43;0.90;99.90
50989;DHT22;37008;52.210;21.112;2024-01-15T00:04:09;1.00;99.90
50989;DHT22;37008;52.210;21.112;2024-01-15T00:06:38;1.00;99.90
50989;DHT22;37008;52.210;21.112;2024-01-15T00:09:03;0.90;99.90
50989;DHT22;37008;52.210;21.112;2024-01-15T00:11:30;1.00;99.90
50989;DHT22;37008;52.210;21.112;2024-01-15T00:13:56;1.00;99.90
50989;DHT22;37008;52.210;21.112;2024-01-15T00:16:21;1.00;99.90
50989;DHT22;37008;52.210;21.112;2024-01-15T00:18:47;1.00;99.90
50989;DHT22;37008;52.210;21.112;2024-01-15T00:21:12;1.00;99.90
50989;DHT22;37008;52.210;21.112;2024-01-15T00:23:42;1.00;99.90
50989;DHT22;37008;52.210;21.112;2024-01-15T00:26:09;1.00;99.90
50989;DHT22;37008;52.210;21.112;2024-01-15T00:28:36;1.00;99.90
50989;DHT22;37008;52.210;21.112;2024-01-15T00:31:02;1.00;99.90
50989;DHT22;37008;52.210;21.112;2024-01-15T00:33:27;1.00;99.90
50989;DHT22;37008;52.210;21.112;2024-01-15T00:35:53;1.20;99.90
50989;DHT22;37008;52.210;21.112;2024-01-15T00:38:18;0.90;99.90
50989;DHT22;37008;52.210;21.112;2024-01-15T00:40:44;0.90;99.90
50989;DHT22;37008;52.210;21.112;2024-01-15T00:43:10;0.90;99.90
50989;DHT22;37008;52.210;21.112;2024-01-15T00:45:35;0.90;99.90
50989;DHT22;37008;52.210;21.112;2024-01-15T00:48:01;0.90;99.90
50989;DHT22;37008;52.210;21.112;2024-01-15T00:50:26;0.90;99.90
50989;DHT22;37008;52.210;21.112;2024-01-15T00:52:52;0.90;99.90
50989;DHT22;37008;52.210;21.112;2024-01-15T00:55:18;0.90;99.90
50989;DHT22;37008;52.210;21.112;2024-01-15T00:57:43;1.00;99.90
50989;DHT22;37008;52.210;21.112;2024-01-15T01:00:09;0.90;99.90
50989;DHT22;37008;52.210;21.112;2024-01-15T01:02:35;1.00;99.90
50989;DHT22;37008;52.210;21.112;2024-01-15T01:05:00;1.00;99.90
50989;DHT22;37008;52.210;21.112;2024-01-15T01:07:26;1.00;99.90
50989;DHT22;37008;52.210;21.112;2024-01-15T01:09:51;1.00;99.90
50989;DHT22;37008;52.210;21.112;2024-01-15T01:12:17;0.90;99.90
50989;DHT22;37008;52.210;21.112;2024-01-15T01:14:43;0.90;99.90
50989;DHT22;37008;52.210;21.112;2024-01-15T01:17:08;0.80;99.90
50989;DHT22;37008;52.210;21.112;2024-01-15T01:19:34;0.80;99.90
50989;DHT22;37008;52.210;21.112;2024-01-15T01:21:59;0.80;99.90
50989;DHT22;37008;52.210;21.112;2024-01-15T01:24:25;0.70;99.90
50989;DHT22;37008;52.210;21.112;2024-01-15T01:26:50;0.70;99.90
50989;DHT22;37008;52.210;21.112;2024-01-15T01:29:16;0.70;99.90
50989;DHT22;37008;52.210;21.112;2024-01-15T01:31:45;0.70;99.90
50989;DHT22;37008;52.210;21.112;2024-01-15T01:34:13;0.70;99.90
50989;DHT22;37008;52.210;21.112;2024-01-15T01:36:39;0.70;99.90
50989;DHT22;37008;52.210;21.112;2024-01-15T01:39:04;0.70;99.90
50989;DHT22;37008;52.210;21.112;2024-01-15T01:41:30;0.70;99.90
50989;DHT22;37008;52.210;21.112;2024-01-15T01:43:56;0.70;99.90
50989;DHT22;37008;52.210;21.112;2024-01-15T01:46:23;0.70;99.90
50989;DHT22;37008;52.210;21.112;2024-01-15T01:48:49;0.70;99.90
50989;DHT22;37008;52.210;21.112;2024-01-15T01:51:14;0.70;99.90
50989;DHT22;37008;52.210;21.112;2024-01-15T01:53:41;0.70;99.90
50989;DHT22;37008;52.210;21.112;2024-01-15T01:56:07;0.70;99.90
50989;DHT22;37008;52.210;21.112;2024-01-15T01:58:33;0.70;99.90
50989;DHT22;37008;52.210;21.112;2024-01-15T02:00:59;0.70;99.90
50989;DHT22;37008;52.210;21.112;2024-01-15T02:03:26;0.70;99.90
50989;DHT22;37008;52.210;21.112;2024-01-15T02:05:52;0.70;99.90
50989;DHT22;37008;52.210;21.112;2024-01-15T02:08:19;0.70;99.90
50989;DHT22;37008;52.210;21.112;2024-01-15T02:10:44;0.70;99.90
50989;DHT22;37008;52.210;21.112;2024-01-15T02:13:10;0.80;99.90
50989;DHT22;37008;52.210;21.112;2024-01-15T02:15:36;0.80;99.90
50989;DHT22;37008;52.210;21.112;2024-01-15T02:18:04;0.70;99.90
50989;DHT22;37008;52.210;21.112;2024-01-15T02:20:30;0.70;99.90
50989;DHT22;37008;52.210;21.112;2024-01-15T02:23:22;0.80;99.90
50989;DHT22;37008;52.210;21.112;2024-01-15T02:25:47;0.80;99.90
50989;DHT22;37008;52.210;21.112;2024-01-15T02:28:15;0.80;99.90
50989;DHT22;37008;52.210;21.112;2024-01-15T02:30:42;0.80;99.90
50989;DHT22;37008;52.210;21.112;2024-01-15T02:33:08;0.80;99.90
50989;DHT22;37008;52.210;21.112;2024-01-15T02:35:35;1.30;99.90
50989;DHT22;37008;52.210;21.112;2024-01-15T02:38:07;0.80;99.90
50989;DHT22;37008;52.210;21.112;2024-01-15T02:40:34;0.80;99.90
50989;DHT22;37008;52.210;21.112;2024-01-15T02:43:00;0.80;99.90
50989;DHT22;37008;52.210;21.112;2024-01-15T02:45:26;0.80;99.90
50989;DHT22;37008;52.210;21.112;2024-01-15T02:47:51;0.80;99.90
50989;DHT22;37008;52.210;21.112;2024-01-15T02:50:17;0.80;99.90
50989;DHT22;37008;52.210;21.112;2024-01-15T02:52:42;0.80;99.90
50989;DHT22;37008;52.210;21.112;2024-01-15T02:55:08;0.80;99.90
50989;DHT22;37008;52.210;21.112;2024-01-15T02:57:34;0.80;99.90
50989;DHT22;37008;52.210;21.112;2024-01-15T03:00:00;0.80;99.90
50989;DHT22;37008;52.210;21.112;2024-01-15T03:02:26;0.80;99.90
50989;DHT22;37008;52.210;21.112;2024-01-15T03:04:52;0.80;99.90
50989;DHT22;37008;52.210;21.112;2024-01-15T03:07:17;0.80;99.90
50989;DHT22;37008;52.210;21.112;2024-01-15T03:09:43;0.80;99.90
50989;DHT22;37008;52.210;21.112;2024-01-15T03:12:09;0.80;99.90
50989;DHT22;37008;52.210;21.112;2024-01-15T03:14:35;0.80;99.90
50989;DHT22;37008;52.210;21.112;2024-01-15T03:17:01;0.80;99.90
50989;DHT22;37008;52.210;21.112;2024-01-15T03:19:27;0.80;99.90
50989;DHT22;37008;52.210;21.112;2024-01-15T03:21:52;0.80;99.90
50989;DHT22;37008;52.210;21.112;2024-01-15T03:24:18;0.80;99.90
50989;DHT22;37008;52.210;21.112;2024-01-15T03:26:44;0.80;99.90
50989;DHT22;37008;52.210;21.112;2024-01-15T03:29:09;0.80;99.90
50989;DHT22;37008;52.210;21.112;2024-01-15T03:31:35;0.80;99.90
50989;DHT22;37008;52.210;21.112;2024-01-15T03:34:01;0.80;99.90
50989;DHT22;37008;52.210;21.112;2024-01-15T03:36:26;0.80;99.90
50989;DHT22;37008;52.210;21.112;2024-01-15T03:38:52;0.70;99.90
50989;DHT22;37008;52.210;21.112;2024-01-15T03:41:17;0.70;99.90
50989;DHT22;37008;52.210;21.112;2024-01-15T03:43:43;0.70;99.90
50989;DHT22;37008;52.210;21.112;2024-01-15T03:46:08;0.60;99.90
50989;DHT22;37008;52.210;21.112;2024-01-15T03:48:34;0.60;99.90
50989;DHT22;37008;52.210;21.112;2024-01-15T03:50:59;0.60;99.90
50989;DHT22;37008;52.210;21.112;2024-01-15T03:53:25;0.60;99.90
50989;DHT22;37008;52.210;21.112;2024-01-15T03:55:51;0.60;99.90
50989;DHT22;37008;52.210;21.112;2024-01-15T03:58:18;0.60;99.90
50989;DHT22;37008;52.210;21.112;2024-01-15T04:00:43;0.60;99.90
50989;DHT22;37008;52.210;21.112;2024-01-15T04:03:09;0.60;99.90
50989;DHT22;37008;52.210;21.112;2024-01-15T04:05:35;0.60;99.90
50989;DHT22;37008;52.210;21.112;2024-01-15T04:08:01;0.60;99.90
50989;DHT22;37008;52.210;21.112;2024-01-15T04:10:27;0.60;99.90
50989;DHT22;37008;52.210;21.112;2024-01-15T04:12:52;0.60;99.90
50989;DHT22;37008;52.210;21.112;2024-01-15T04:15:18;0.60;99.90
50989;DHT22;37008;52.210;21.112;2024-01-15T04:17:43;0.60;99.90
50989;DHT22;37008;52.210;21.112;2024-01-15T04:20:09;0.60;99.90
50989;DHT22;37008;52.210;21.112;2024-01-15T04:22:35;0.60;99.90
50989;DHT22;37008;52.210;21.112;2024-01-15T04:25:01;0.60;99.90
50989;DHT22;37008;52.210;21.112;2024-01-15T04:27:27;0.60;99.90
50989;DHT22;37008;52.210;21.112;2024-01-15T04:29:53;0.60;99.90
50989;DHT22;37008;52.210;21.112;2024-01-15T04:32:19;0.60;99.90
50989;DHT22;37008;52.210;21.112;2024-01-15T04:34:45;0.60;99.90
50989;DHT22;37008;52.210;21.112;2024-01-15T04:37:10;0.60;99.90
50989;DHT22;37008;52.210;21.112;2024-01-15T04:39:36;0.60;99.90
50989;DHT22;37008;52.210;21.112;2024-01-15T04:42:02;0.60;99.90
50989;DHT22;37008;52.210;21.112;2024-01-15T04:44:28;0.60;99.90
50989;DHT22;37008;52.210;21.112;2024-01-15T04:46:53;0.60;99.90
50989;DHT22;37008;52.210;21.112;2024-01-15T04:49:19;0.60;99.90
50989;DHT22;37008;52.210;21.112;2024-01-15T04:51:44;0.70;99.90
50989;DHT22;37008;52.210;21.112;2024-01-15T04:54:10;0.70;99.90
50989;DHT22;37008;52.210;21.112;2024-01-15T04:56:36;0.70;99.90
50989;DHT22;37008;52.210;21.112;2024-01-15T04:59:02;0.70;99.90
50989;DHT22;37008;52.210;21.112;2024-01-15T05:01:31;0.60;99.90
50989;DHT22;37008;52.210;21.112;2024-01-15T05:03:58;0.70;99.90
50989;DHT22;37008;52.210;21.112;2024-01-15T05:06:23;0.70;99.90
50989;DHT22;37008;52.210;21.112;2024-01-15T05:08:49;0.70;99.90
50989;DHT22;37008;52.210;21.112;2024-01-15T05:11:14;0.70;99.90
50989;DHT22;37008;52.210;21.112;2024-01-15T05:13:40;0.70;99.90
50989;DHT22;37008;52.210;21.112;2024-01-15T05:16:06;0.70;99.90
50989;DHT22;37008;52.210;21.112;2024-01-15T05:18:31;0.70;99.90
50989;DHT22;37008;52.210;21.112;2024-01-15T05:20:57;0.70;99.90
50989;DHT22;37008;52.210;21.112;2024-01-15T05:23:23;0.70;99.90
50989;DHT22;37008;52.210;21.112;2024-01-15T05:25:48;0.70;99.90
50989;DHT22;37008;52.210;21.112;2024-01-15T05:28:14;0.70;99.90
50989;DHT22;37008;52.210;21.112;2024-01-15T05:30:40;0.70;99.90
50989;DHT22;37008;52.210;21.112;2024-01-15T05:33:05;0.70;99.90
50989;DHT22;37008;52.210;21.112;2024-01-15T05:35:32;0.80;99.90
50989;DHT22;37008;52.210;21.112;2024-01-15T05:37:58;0.70;99.90
50989;DHT22;37008;52.210;21.112;2024-01-15T05:40:24;0.80;99.90
50989;DHT22;37008;52.210;21.112;2024-01-15T05:42:49;0.70;99.90
50989;DHT22;37008;52.210;21.112;2024-01-15T05:45:15;0.80;99.90
50989;DHT22;37008;52.210;21.112;2024-01-15T05:47:41;0.70;99.90
50989;DHT22;37008;52.210;21.112;2024-01-15T05:50:06;0.80;99.90
50989;DHT22;37008;52.210;21.112;2024-01-15T05:52:32;0.70;99.90
50989;DHT22;37008;52.210;21.112;2024-01-15T05:54:58;0.70;99.90
50989;DHT22;37008;52.210;21.112;2024-01-15T05:57:23;0.80;99.90
50989;DHT22;37008;52.210;21.112;2024-01-15T05:59:49;0.80;99.90
50989;DHT22;37008;52.210;21.112;2024-01-15T06:02:15;0.80;99.90
50989;DHT22;37008;52.210;21.112;2024-01-15T06:04:40;0.80;99.90
50989;DHT22;37008;52.210;21.112;2024-01-15T06:07:06;0.80;99.90
50989;DHT22;37008;52.210;21.112;2024-01-15T06:09:31;0.80;99.90
50989;DHT22;37008;52.210;21.112;2024-01-15T06:11:57;0.80;99.90
50989;DHT22;37008;52.210;21.112;2024-01-15T06:14:22;0.80;99.90
50989;DHT22;37008;52.210;21.112;2024-01-15T06:16:48;0.70;99.90
50989;DHT22;37008;52.210;21.112;2024-01-15T06:19:14;0.70;99.90
50989;DHT22;37008;52.210;21.112;2024-01-15T06:21:40;0.70;99.90
50989;DHT22;37008;52.210;21.112;2024-01-15T06:24:05;0.70;99.90
50989;DHT22;37008;52.210;21.112;2024-01-15T06:26:31;0.70;99.90
50989;DHT22;37008;52.210;21.112;2024-01-15T06:28:57;0.70;99.90
50989;DHT22;37008;52.210;21.112;2024-01-15T06:31:22;0.70;99.90
50989;DHT22;37008;52.210;21.112;2024-01-15T06:33:48;0.70;99.90
50989;DHT22;37008;52.210;21.112;2024-01-15T06:36:14;0.70;99.90
50989;DHT22;37008;52.210;21.112;2024-01-15T06:38:43;0.70;99.90
50989;DHT22;37008;52.210;21.112;2024-01-15T06:41:08;0.70;99.90
50989;DHT22;37008;52.210;21.112;2024-01-15T06:43:34;0.70;99.90
50989;DHT22;37008;52.210;21.112;2024-01-15T06:45:59;0.70;99.90
50989;DHT22;37008;52.210;21.112;2024-01-15T06:48:25;0.70;99.90
50989;DHT22;37008;52.210;21.112;2024-01-15T06:50:50;0.70;99.90
50989;DHT22;37008;52.210;21.112;2024-01-15T06:53:16;0.70;99.90
50989;DHT22;37008;52.210;21.112;2024-01-15T06:55:42;0.70;99.90
50989;DHT22;37008;52.210;21.112;2024-01-15T06:58:07;0.80;99.90
50989;DHT22;37008;52.210;21.112;2024-01-15T07:00:33;0.80;99.90
50989;DHT22;37008;52.210;21.112;2024-01-15T07:02:58;0.80;99.90
50989;DHT22;37008;52.210;21.112;2024-01-15T07:05:24;0.80;99.90
50989;DHT22;37008;52.210;21.112;2024-01-15T07:07:50;0.80;99.90
50989;DHT22;37008;52.210;21.112;2024-01-15T07:10:15;0.80;99.90
50989;DHT22;37008;52.210;21.112;2024-01-15T07:12:44;0.80;99.90
50989;DHT22;37008;52.210;21.112;2024-01-15T07:15:10;0.90;99.90
50989;DHT22;37008;52.210;21.112;2024-01-15T07:17:36;0.80;99.90
50989;DHT22;37008;52.210;21.112;2024-01-15T07:20:08;0.70;99.90
50989;DHT22;37008;52.210;21.112;2024-01-15T07:22:37;0.80;99.90
50989;DHT22;37008;52.210;21.112;2024-01-15T07:25:03;0.80;99.90
50989;DHT22;37008;52.210;21.112;2024-01-15T07:27:30;0.80;99.90
50989;DHT22;37008;52.210;21.112;2024-01-15T07:29:57;0.80;99.90
50989;DHT22;37008;52.210;21.112;2024-01-15T07:32:22;0.70;99.90
50989;DHT22;37008;52.210;21.112;2024-01-15T07:34:48;0.70;99.90
50989;DHT22;37008;52.210;21.112;2024-01-15T07:37:14;0.70;99.90
50989;DHT22;37008;52.210;21.112;2024-01-15T07:39:40;0.70;99.90
50989;DHT22;37008;52.210;21.112;2024-01-15T07:42:06;0.60;99.90
50989;DHT22;37008;52.210;21.112;2024-01-15T07:44:31;0.60;99.90
50989;DHT22;37008;52.210;21.112;2024-01-15T07:46:57;0.60;99.90
50989;DHT22;37008;52.210;21.112;2024-01-15T07:49:22;0.60;99.90
50989;DHT22;37008;52.210;21.112;2024-01-15T07:51:49;0.60;99.90
50989;DHT22;37008;52.210;21.112;2024-01-15T07:54:14;0.60;99.90
50989;DHT22;37008;52.210;21.112;2024-01-15T07:56:59;0.60;99.90
50989;DHT22;37008;52.210;21.112;2024-01-15T07:59:24;0.60;99.90
50989;DHT22;37008;52.210;21.112;2024-01-15T08:01:51;0.70;99.90
50989;DHT22;37008;52.210;21.112;2024-01-15T08:04:17;0.60;99.90
50989;DHT22;37008;52.210;21.112;2024-01-15T08:06:42;0.60;99.90
50989;DHT22;37008;52.210;21.112;2024-01-15T08:09:08;0.60;99.90
50989;DHT22;37008;52.210;21.112;2024-01-15T08:11:34;0.70;99.90
50989;DHT22;37008;52.210;21.112;2024-01-15T08:14:00;0.70;99.90
50989;DHT22;37008;52.210;21.112;2024-01-15T08:16:25;0.70;99.90
50989;DHT22;37008;52.210;21.112;2024-01-15T08:18:53;0.70;99.90
50989;DHT22;37008;52.210;21.112;2024-01-15T08:21:19;0.80;99.90
50989;DHT22;37008;52.210;21.112;2024-01-15T08:23:44;0.70;99.90
50989;DHT22;37008;52.210;21.112;2024-01-15T08:26:10;0.70;99.90
50989;DHT22;37008;52.210;21.112;2024-01-15T08:28:36;0.80;99.90
50989;DHT22;37008;52.210;21.112;2024-01-15T08:31:02;0.80;99.90
50989;DHT22;37008;52.210;21.112;2024-01-15T08:33:28;0.80;99.90
50989;DHT22;37008;52.210;21.112;2024-01-15T08:35:54;0.90;99.90
50989;DHT22;37008;52.210;21.112;2024-01-15T08:38:20;1.00;99.90
50989;DHT22;37008;52.210;21.112;2024-01-15T08:40:46;1.00;99.90
50989;DHT22;37008;52.210;21.112;2024-01-15T08:43:11;1.10;99.90
50989;DHT22;37008;52.210;21.112;2024-01-15T08:45:37;1.20;99.90
50989;DHT22;37008;52.210;21.112;2024-01-15T08:48:03;1.30;99.90
50989;DHT22;37008;52.210;21.112;2024-01-15T08:50:29;1.30;99.90
50989;DHT22;37008;52.210;21.112;2024-01-15T08:52:55;1.30;99.90
50989;DHT22;37008;52.210;21.112;2024-01-15T08:55:21;1.30;99.90
50989;DHT22;37008;52.210;21.112;2024-01-15T08:57:48;1.20;99.90
50989;DHT22;37008;52.210;21.112;2024-01-15T09:00:14;1.20;99.90
50989;DHT22;37008;52.210;21.112;2024-01-15T09:02:40;1.20;99.90
50989;DHT22;37008;52.210;21.112;2024-01-15T09:05:06;1.00;99.90
50989;DHT22;37008;52.210;21.112;2024-01-15T09:07:32;1.00;99.90
50989;DHT22;37008;52.210;21.112;2024-01-15T09:09:57;0.90;99.90
50989;DHT22;37008;52.210;21.112;2024-01-15T09:12:25;0.90;99.90
50989;DHT22;37008;52.210;21.112;2024-01-15T09:14:51;1.00;99.90
50989;DHT22;37008;52.210;21.112;2024-01-15T09:17:17;1.10;99.90
50989;DHT22;37008;52.210;21.112;2024-01-15T09:19:43;1.10;99.90
50989;DHT22;37008;52.210;21.112;2024-01-15T09:22:09;1.10;99.90
50989;DHT22;37008;52.210;21.112;2024-01-15T09:24:35;1.20;99.90
50989;DHT22;37008;52.210;21.112;2024-01-15T09:27:01;1.30;99.90
50989;DHT22;37008;52.210;21.112;2024-01-15T09:29:27;1.40;99.90
50989;DHT22;37008;52.210;21.112;2024-01-15T09:31:53;1.30;99.90
50989;DHT22;37008;52.210;21.112;2024-01-15T09:34:18;1.40;99.90
50989;DHT22;37008;52.210;21.112;2024-01-15T09:36:44;1.40;99.90
50989;DHT22;37008;52.210;21.112;2024-01-15T09:39:10;1.50;99.90
50989;DHT22;37008;52.210;21.112;2024-01-15T09:41:37;1.60;99.90
50989;DHT22;37008;52.210;21.112;2024-01-15T09:44:03;1.60;99.90
50989;DHT22;37008;52.210;21.112;2024-01-15T09:46:33;1.70;99.90
50989;DHT22;37008;52.210;21.112;2024-01-15T09:49:00;1.60;99.90
50989;DHT22;37008;52.210;21.112;2024-01-15T09:51:30;1.60;99.90
50989;DHT22;37008;52.210;21.112;2024-01-15T09:53:57;1.70;99.90
50989;DHT22;37008;52.210;21.112;2024-01-15T09:56:23;1.70;99.90
50989;DHT22;37008;52.210;21.112;2024-01-15T09:58:50;1.70;99.90
50989;DHT22;37008;52.210;21.112;2024-01-15T10:01:17;1.70;99.90
50989;DHT22;37008;52.210;21.112;2024-01-15T10:03:43;2.20;99.90
50989;DHT22;37008;52.210;21.112;2024-01-15T10:06:09;1.80;99.90
50989;DHT22;37008;52.210;21.112;2024-01-15T10:08:39;1.40;99.90
50989;DHT22;37008;52.210;21.112;2024-01-15T10:11:05;2.50;99.90
50989;DHT22;37008;52.210;21.112;2024-01-15T10:13:30;2.60;99.90
50989;DHT22;37008;52.210;21.112;2024-01-15T10:15:56;1.70;99.90
50989;DHT22;37008;52.210;21.112;2024-01-15T10:18:23;1.90;99.90
50989;DHT22;37008;52.210;21.112;2024-01-15T10:20:49;1.70;99.90
50989;DHT22;37008;52.210;21.112;2024-01-15T10:23:15;1.80;99.90
50989;DHT22;37008;52.210;21.112;2024-01-15T10:25:44;1.80;99.90
50989;DHT22;37008;52.210;21.112;2024-01-15T10:28:10;1.80;99.90
50989;DHT22;37008;52.210;21.112;2024-01-15T10:30:36;1.90;99.90
50989;DHT22;37008;52.210;21.112;2024-01-15T10:33:03;3.00;99.90
50989;DHT22;37008;52.210;21.112;2024-01-15T10:35:34;1.80;99.90
50989;DHT22;37008;52.210;21.112;2024-01-15T10:38:01;1.90;99.90
50989;DHT22;37008;52.210;21.112;2024-01-15T10:40:28;1.80;99.90
50989;DHT22;37008;52.210;21.112;2024-01-15T10:42:54;1.80;99.90
50989;DHT22;37008;52.210;21.112;2024-01-15T10:45:20;1.80;99.90
50989;DHT22;37008;52.210;21.112;2024-01-15T10:47:45;1.80;99.90
50989;DHT22;37008;52.210;21.112;2024-01-15T10:50:11;1.80;99.90
50989;DHT22;37008;52.210;21.112;2024-01-15T10:52:39;1.80;99.90
50989;DHT22;37008;52.210;21.112;2024-01-15T10:55:09;1.80;99.90
50989;DHT22;37008;52.210;21.112;2024-01-15T10:57:36;1.80;99.90
50989;DHT22;37008;52.210;21.112;2024-01-15T11:00:02;1.90;99.90
50989;DHT22;37008;52.210;21.112;2024-01-15T11:02:32;1.90;99.90
50989;DHT22;37008;52.210;21.112;2024-01-15T11:05:00;2.00;99.90
50989;DHT22;37008;52.210;21.112;2024-01-15T11:07:26;2.00;99.90
50989;DHT22;37008;52.210;21.112;2024-01-15T11:09:52;2.00;99.90
50989;DHT22;37008;52.210;21.112;2024-01-15T11:12:18;1.90;99.90
50989;DHT22;37008;52.210;21.112;2024-01-15T11:14:48;2.00;99.90
50989;DHT22;37008;52.210;21.112;2024-01-15T11:17:15;1.90;99.90
50989;DHT22;37008;52.210;21.112;2024-01-15T11:22:47;1.90;99.90
50989;DHT22;37008;52.210;21.112;2024-01-15T11:25:04;1.90;99.90
50989;DHT22;37008;52.210;21.112;2024-01-15T11:27:51;1.90;99.90
50989;DHT22;37008;52.210;21.112;2024-01-15T11:30:18;1.80;99.90
50989;DHT22;37008;52.210;21.112;2024-01-15T11:32:45;1.80;99.90
50989;DHT22;37008;52.210;21.112;2024-01-15T11:35:12;1.90;99.90
50989;DHT22;37008;52.210;21.112;2024-01-15T11:40:36;1.90;99.90
50989;DHT22;37008;52.210;21.112;2024-01-15T11:43:04;1.90;99.90
50989;DHT22;37008;52.210;21.112;2024-01-15T11:45:30;1.90;99.90
50989;DHT22;37008;52.210;21.112;2024-01-15T11:48:12;2.00;99.90
50989;DHT22;37008;52.210;21.112;2024-01-15T11:50:48;2.00;99.90
50989;DHT22;37008;52.210;21.112;2024-01-15T11:53:37;2.00;99.90
50989;DHT22;37008;52.210;21.112;2024-01-15T11:56:14;1.80;99.90
50989;DHT22;37008;52.210;21.112;2024-01-15T11:58:40;1.90;99.90
50989;DHT22;37008;52.210;21.112;2024-01-15T12:01:10;1.80;99.90
50989;DHT22;37008;52.210;21.112;2024-01-15T12:03:35;1.80;99.90
50989;DHT22;37008;52.210;21.112;2024-01-15T12:06:01;1.80;99.90
50989;DHT22;37008;52.210;21.112;2024-01-15T12:08:27;1.80;99.90
50989;DHT22;37008;52.210;21.112;2024-01-15T12:10:53;1.80;99.90
50989;DHT22;37008;52.210;21.112;2024-01-15T12:13:19;2.40;99.90
50989;DHT22;37008;52.210;21.112;2024-01-15T12:15:46;1.80;99.90
50989;DHT22;37008;52.210;21.112;2024-01-15T12:18:14;1.70;99.90
50989;DHT22;37008;52.210;21.112;2024-01-15T12:20:40;1.70;99.90
50989;DHT22;37008;52.210;21.112;2024-01-15T12:23:07;1.60;99.90
50989;DHT22;37008;52.210;21.112;2024-01-15T12:25:33;1.60;99.90
50989;DHT22;37008;52.210;21.112;2024-01-15T12:28:00;1.50;99.90
50989;DHT22;37008;52.210;21.112;2024-01-15T12:30:27;1.50;99.90
50989;DHT22;37008;52.210;21.112;2024-01-15T12:32:52;1.50;99.90
50989;DHT22;37008;52.210;21.112;2024-01-15T12:35:18;1.50;99.90
50989;DHT22;37008;52.210;21.112;2024-01-15T12:37:44;1.50;99.90
50989;DHT22;37008;52.210;21.112;2024-01-15T12:40:13;1.50;99.90
50989;DHT22;37008;52.210;21.112;2024-01-15T12:42:40;1.40;99.90
50989;DHT22;37008;52.210;21.112;2024-01-15T12:45:06;1.70;99.90
50989;DHT22;37008;52.210;21.112;2024-01-15T12:47:32;1.30;99.90
50989;DHT22;37008;52.210;21.112;2024-01-15T12:49:58;1.40;99.90
50989;DHT22;37008;52.210;21.112;2024-01-15T12:52:28;1.10;99.90
50989;DHT22;37008;52.210;21.112;2024-01-15T12:54:54;1.90;99.90
50989;DHT22;37008;52.210;21.112;2024-01-15T12:57:19;1.00;99.90
50989;DHT22;37008;52.210;21.112;2024-01-15T12:59:45;1.00;99.90
50989;DHT22;37008;52.210;21.112;2024-01-15T13:02:12;1.10;99.90
50989;DHT22;37008;52.210;21.112;2024-01-15T13:04:38;1.20;99.90
50989;DHT22;37008;52.210;21.112;2024-01-15T13:07:04;1.20;99.90
50989;DHT22;37008;52.210;21.112;2024-01-15T13:09:30;1.20;99.90
50989;DHT22;37008;52.210;21.112;2024-01-15T13:11:55;1.20;99.90
50989;DHT22;37008;52.210;21.112;2024-01-15T13:14:21;1.20;99.90
50989;DHT22;37008;52.210;21.112;2024-01-15T13:16:47;1.20;99.90
50989;DHT22;37008;52.210;21.112;2024-01-15T13:19:12;1.10;99.90
50989;DHT22;37008;52.210;21.112;2024-01-15T13:21:41;0.90;99.90
50989;DHT22;37008;52.210;21.112;2024-01-15T13:24:08;0.80;99.90
50989;DHT22;37008;52.210;21.112;2024-01-15T13:26:35;0.60;99.90
50989;DHT22;37008;52.210;21.112;2024-01-15T13:29:03;0.50;99.90
50989;DHT22;37008;52.210;21.112;2024-01-15T13:31:30;0.50;99.90
50989;DHT22;37008;52.210;21.112;2024-01-15T13:33:55;0.50;99.90
50989;DHT22;37008;52.210;21.112;2024-01-15T13:36:25;0.40;99.90
50989;DHT22;37008;52.210;21.112;2024-01-15T13:38:51;0.50;99.90
50989;DHT22;37008;52.210;21.112;2024-01-15T13:41:23;0.40;99.90
50989;DHT22;37008;52.210;21.112;2024-01-15T13:43:58;0.40;99.90
50989;DHT22;37008;52.210;21.112;2024-01-15T13:46:25;0.50;99.90
50989;DHT22;37008;52.210;21.112;2024-01-15T13:48:55;0.40;99.90
50989;DHT22;37008;52.210;21.112;2024-01-15T13:51:22;0.50;99.90
50989;DHT22;37008;52.210;21.112;2024-01-15T13:53:48;0.60;99.90
50989;DHT22;37008;52.210;21.112;2024-01-15T13:56:15;0.50;99.90
50989;DHT22;37008;52.210;21.112;2024-01-15T13:58:40;0.50;99.90
50989;DHT22;37008;52.210;21.112;2024-01-15T14:01:06;0.30;99.90
50989;DHT22;37008;52.210;21.112;2024-01-15T14:03:34;0.50;99.90
50989;DHT22;37008;52.210;21.112;2024-01-15T14:06:00;0.50;99.90
50989;DHT22;37008;52.210;21.112;2024-01-15T14:08:28;0.50;99.90
50989;DHT22;37008;52.210;21.112;2024-01-15T14:10:54;0.60;99.90
50989;DHT22;37008;52.210;21.112;2024-01-15T14:13:21;0.60;99.90
50989;DHT22;37008;52.210;21.112;2024-01-15T14:15:47;0.60;99.90
50989;DHT22;37008;52.210;21.112;2024-01-15T14:18:16;0.70;99.90
50989;DHT22;37008;52.210;21.112;2024-01-15T14:20:41;0.60;99.90
50989;DHT22;37008;52.210;21.112;2024-01-15T14:23:07;0.90;99.90
50989;DHT22;37008;52.210;21.112;2024-01-15T14:25:32;0.60;99.90
50989;DHT22;37008;52.210;21.112;2024-01-15T14:27:58;0.60;99.90
50989;DHT22;37008;52.210;21.112;2024-01-15T14:30:24;0.60;99.90
50989;DHT22;37008;52.210;21.112;2024-01-15T14:32:49;0.60;99.90
50989;DHT22;37008;52.210;21.112;2024-01-15T14:35:15;0.60;99.90
50989;DHT22;37008;52.210;21.112;2024-01-15T14:37:40;0.50;99.90
50989;DHT22;37008;52.210;21.112;2024-01-15T14:40:06;0.50;99.90
50989;DHT22;37008;52.210;21.112;2024-01-15T14:42:41;0.50;99.90
50989;DHT22;37008;52.210;21.112;2024-01-15T14:45:07;0.50;99.90
50989;DHT22;37008;52.210;21.112;2024-01-15T14:47:37;0.50;99.90
50989;DHT22;37008;52.210;21.112;2024-01-15T14:50:03;0.50;99.90
50989;DHT22;37008;52.210;21.112;2024-01-15T14:52:29;0.40;99.90
50989;DHT22;37008;52.210;21.112;2024-01-15T14:54:55;0.40;99.90
50989;DHT22;37008;52.210;21.112;2024-01-15T14:57:20;0.40;99.90
50989;DHT22;37008;52.210;21.112;2024-01-15T14:59:46;0.30;99.90
50989;DHT22;37008;52.210;21.112;2024-01-15T15:02:12;0.40;99.90
50989;DHT22;37008;52.210;21.112;2024-01-15T15:04:38;0.40;99.90
50989;DHT22;37008;52.210;21.112;2024-01-15T15:07:03;0.40;99.90
50989;DHT22;37008;52.210;21.112;2024-01-15T15:09:29;0.40;99.90
50989;DHT22;37008;52.210;21.112;2024-01-15T15:11:54;0.40;99.90
50989;DHT22;37008;52.210;21.112;2024-01-15T15:14:20;1.20;99.90
50989;DHT22;37008;52.210;21.112;2024-01-15T15:16:47;0.40;99.90
50989;DHT22;37008;52.210;21.112;2024-01-15T15:19:13;0.40;99.90
50989;DHT22;37008;52.210;21.112;2024-01-15T15:21:38;0.40;99.90
50989;DHT22;37008;52.210;21.112;2024-01-15T15:24:04;0.50;99.90
50989;DHT22;37008;52.210;21.112;2024-01-15T15:26:30;0.40;99.90
50989;DHT22;37008;52.210;21.112;2024-01-15T15:28:56;0.40;99.90
50989;DHT22;37008;52.210;21.112;2024-01-15T15:31:21;0.40;99.90